Terminal Aerodrome Forecast
Issued by NWS

Home | Current Version | Previous Version | Text Only | Print | Product List | Glossary Off
Versions: 1 2 3 4 5 6 7 8 9 10 11 12 13 14 15 16 17 18

000
FTUS43 KBIS 182300
TAFDIK
TAF
KDIK 182336Z 1900/1924 34017KT P6SM -SHRA OVC070
     FM190400 35016G24KT P6SM OVC090
     FM190900 32016G24KT P6SM BKN250
     FM191400 31020G29KT P6SM BKN060
     FM191900 32022G32KT P6SM VCSH BKN060=

USA.gov is the U.S. government's official web portal to all federal, state and local government web resources and services.